Time;durP1;ratioP1;P1;durP2;ratioP2;P2;SDS_P1;SDS_P2;PMS_P1;PMS_P2;Temp;Humidity;BMP_temperature;BMP_pressure;BME280_temperature;BME280_humidity;BME280_pressure;Samples;Min_cycle;Max_cycle;Signal;HPM_P1;HPM_P2
2022/03/06 00:01:50;;;;;;;18.17;9.20;;;0.50;50.70;;;0.97;44.13;97862.84;6212129;23;20016;-36
2022/03/06 00:04:18;;;;;;;16.53;8.90;;;0.40;50.70;;;0.95;44.60;97864.72;6213168;23;20012;-37
2022/03/06 00:06:46;;;;;;;19.07;10.07;;;0.40;50.60;;;0.92;44.25;97856.22;6238464;23;20011;-37
2022/03/06 00:09:14;;;;;;;18.63;9.80;;;0.20;50.80;;;0.87;44.46;97858.25;6238917;23;20042;-37
2022/03/06 00:11:42;;;;;;;14.47;9.67;;;0.30;51.10;;;0.87;45.10;97864.34;6238803;23;20022;-37
2022/03/06 00:14:10;;;;;;;14.73;8.77;;;0.30;51.40;;;0.86;45.06;97864.47;6237333;23;20042;-37
2022/03/06 00:16:38;;;;;;;15.87;8.80;;;0.20;51.60;;;0.81;44.65;97871.75;6237580;23;20028;-37
2022/03/06 00:19:05;;;;;;;20.87;10.03;;;0.20;51.60;;;0.75;44.59;97863.31;6212143;23;20016;-37
2022/03/06 00:21:35;;;;;;;17.47;9.77;;;0.20;51.50;;;0.76;44.77;97864.19;6238795;23;20020;-36
2022/03/06 00:24:03;;;;;;;15.00;9.00;;;0.20;51.70;;;0.75;45.27;97865.94;6237635;23;20020;-36
2022/03/06 00:26:32;;;;;;;18.83;9.23;;;0.20;51.70;;;0.71;44.39;97856.59;6237666;23;20332;-37
2022/03/06 00:29:00;;;;;;;18.93;10.07;;;0.10;51.60;;;0.66;44.71;97865.66;6239147;23;20011;-37
2022/03/06 00:31:28;;;;;;;19.33;10.20;;;0.10;51.70;;;0.63;45.13;97850.97;6238412;23;20022;-36
2022/03/06 00:33:55;;;;;;;34.87;16.90;;;0.10;51.60;;;0.59;45.10;97860.81;6238443;23;20031;-37
2022/03/06 00:36:23;;;;;;;45.47;19.37;;;0.00;51.80;;;0.57;45.21;97867.09;6238710;23;20020;-37
2022/03/06 00:38:51;;;;;;;25.50;12.03;;;0.00;51.80;;;0.58;45.23;97861.75;6238656;23;20016;-38
2022/03/06 00:41:20;;;;;;;22.73;11.40;;;0.00;52.20;;;0.58;45.25;97859.13;6239223;23;20020;-37
2022/03/06 00:43:47;;;;;;;27.00;12.63;;;0.00;52.30;;;0.55;45.44;97859.31;6237652;23;20026;-37
2022/03/06 00:46:15;;;;;;;36.63;16.33;;;0.00;52.20;;;0.56;45.10;97860.16;6237996;23;20020;-37
2022/03/06 00:48:43;;;;;;;50.40;22.57;;;0.00;52.30;;;0.59;45.48;97858.19;6237437;23;20032;-37
2022/03/06 00:51:13;;;;;;;42.67;20.53;;;0.10;52.40;;;0.67;45.23;97865.59;6210134;23;20338;-37
2022/03/06 00:53:43;;;;;;;46.63;20.77;;;0.20;52.10;;;0.67;45.58;97865.59;6211952;23;20027;-37
2022/03/06 00:56:11;;;;;;;44.40;20.37;;;0.20;52.30;;;0.70;45.09;97859.28;6237774;23;20341;-37
2022/03/06 00:58:38;;;;;;;40.00;18.23;;;0.20;51.90;;;0.71;45.38;97874.09;6238953;23;20023;-37
2022/03/06 01:01:06;;;;;;;36.60;15.90;;;0.20;51.70;;;0.71;45.25;97874.94;6238584;23;20012;-37
2022/03/06 01:03:35;;;;;;;30.97;16.30;;;0.20;51.70;;;0.80;45.54;97875.31;6238980;23;20206;-37
2022/03/06 01:06:03;;;;;;;28.93;14.47;;;0.40;51.70;;;0.78;45.18;97876.25;6238324;23;20028;-37
2022/03/06 01:08:31;;;;;;;34.17;15.77;;;0.40;51.60;;;0.77;45.58;97877.16;6211943;23;20217;-37
2022/03/06 01:10:59;;;;;;;28.63;14.60;;;0.30;52.50;;;0.79;46.39;97874.47;6238293;23;20320;-37
2022/03/06 01:13:27;;;;;;;29.20;13.30;;;0.30;52.50;;;0.80;46.22;97870.09;6234635;23;20016;-37
2022/03/06 01:15:55;;;;;;;30.40;13.70;;;0.30;52.50;;;0.84;45.89;97882.06;6235893;23;20030;-37
2022/03/06 01:18:24;;;;;;;26.70;12.23;;;0.40;52.00;;;0.88;45.92;97876.53;6235907;23;20199;-37
2022/03/06 01:20:52;;;;;;;23.40;13.00;;;0.50;51.80;;;0.93;45.98;97886.72;6236904;23;20355;-37
2022/03/06 01:23:20;;;;;;;22.43;11.13;;;0.50;51.60;;;0.96;45.95;97879.50;6237194;23;20016;-37
2022/03/06 01:25:47;;;;;;;22.47;12.23;;;0.60;51.60;;;1.03;45.63;97881.75;6235792;23;20016;-37
2022/03/06 01:28:15;;;;;;;25.03;14.30;;;0.70;51.70;;;1.02;45.68;97880.91;6236546;23;20020;-37
2022/03/06 01:30:43;;;;;;;25.77;11.90;;;0.70;51.40;;;1.02;45.55;97887.94;6208268;23;20034;-37
2022/03/06 01:33:11;;;;;;;20.10;11.53;;;0.60;51.60;;;1.03;45.96;97879.97;6236012;23;20050;-37
2022/03/06 01:35:39;;;;;;;19.83;10.53;;;0.60;51.60;;;1.01;45.41;97884.47;6235791;23;20028;-37
2022/03/06 01:38:07;;;;;;;22.43;11.67;;;0.60;51.80;;;0.98;45.48;97871.56;6235635;23;20027;-37
2022/03/06 01:40:35;;;;;;;20.80;11.50;;;0.50;51.80;;;0.97;46.04;97878.59;6210549;23;20027;-37
2022/03/06 01:43:03;;;;;;;22.93;11.23;;;0.50;52.00;;;1.01;45.92;97879.22;6236983;23;20012;-37
2022/03/06 01:45:30;;;;;;;18.80;11.10;;;0.60;51.70;;;1.01;45.22;97878.38;6235489;23;20141;-37
2022/03/06 01:47:59;;;;;;;21.67;11.70;;;0.50;51.70;;;0.94;45.48;97878.75;6234898;23;20476;-37
2022/03/06 01:50:32;;;;;;;16.23;9.80;;;0.40;51.60;;;0.93;45.81;97873.59;6236394;23;20018;-37
2022/03/06 01:53:05;;;;;;;20.17;9.90;;;0.40;52.00;;;0.90;45.42;97861.53;6236661;23;20500;-37
2022/03/06 01:55:33;;;;;;;19.40;11.00;;;0.40;51.80;;;0.86;45.58;97861.84;6246105;23;20184;-37
2022/03/06 01:58:07;;;;;;;21.73;11.77;;;0.30;51.80;;;0.81;45.29;97859.47;6235784;23;20020;-37
2022/03/06 02:00:48;;;;;;;19.90;10.50;;;0.30;52.00;;;0.73;45.93;97865.19;6208723;23;20024;-37
2022/03/06 02:03:18;;;;;;;18.73;11.37;;;0.20;52.20;;;0.66;45.75;97858.66;6245954;23;20522;-37
2022/03/06 02:05:48;;;;;;;19.37;11.70;;;0.10;52.00;;;0.66;46.10;97855.19;6235982;23;20016;-37
2022/03/06 02:08:16;;;;;;;19.60;10.77;;;0.10;52.40;;;0.66;45.77;97857.81;6234926;23;20012;-37
2022/03/06 02:10:44;;;;;;;17.17;9.87;;;0.10;52.10;;;0.66;44.99;97856.06;6235195;23;20012;-37
2022/03/06 02:13:11;;;;;;;17.17;9.43;;;0.20;51.80;;;0.65;45.08;97850.91;6236320;23;20019;-37
2022/03/06 02:15:41;;;;;;;17.53;9.50;;;0.10;51.70;;;0.63;45.96;97850.97;6236457;23;20020;-37
2022/03/06 02:18:09;;;;;;;18.27;10.43;;;0.10;51.70;;;0.61;45.59;97854.66;6235292;23;20023;-37
2022/03/06 02:20:37;;;;;;;16.67;9.13;;;0.10;51.90;;;0.57;45.71;97857.44;6236002;23;20011;-37
2022/03/06 02:23:05;;;;;;;17.73;9.87;;;0.00;52.30;;;0.56;45.22;97862.75;6234489;23;20024;-37
2022/03/06 02:25:35;;;;;;;22.10;9.77;;;0.10;52.40;;;0.54;45.77;97868.13;6209142;23;20024;-37
2022/03/06 02:28:10;;;;;;;16.17;8.57;;;0.00;53.10;;;0.52;45.52;97861.28;6235163;23;20023;-37
2022/03/06 02:30:43;;;;;;;19.23;9.87;;;0.00;52.50;;;0.51;45.85;97864.84;6246381;23;20012;-37
2022/03/06 02:33:13;;;;;;;19.88;10.10;;;0.00;52.60;;;0.47;45.34;97855.50;6235646;23;20310;-37
2022/03/06 02:35:42;;;;;;;15.57;8.93;;;-0.10;52.20;;;0.46;45.66;97851.16;6235637;23;20031;-37
2022/03/06 02:38:10;;;;;;;20.40;10.10;;;-0.10;52.30;;;0.42;45.26;97853.13;6235490;23;20020;-37
2022/03/06 02:40:41;;;;;;;22.03;9.17;;;-0.10;52.40;;;0.40;45.49;97847.16;6236691;23;20016;-37
2022/03/06 02:43:13;;;;;;;18.97;9.63;;;-0.10;52.50;;;0.36;46.51;97853.50;6246266;23;20012;-37
2022/03/06 02:45:43;;;;;;;16.90;8.97;;;-0.20;53.00;;;0.28;46.28;97851.34;6245467;23;20209;-37
2022/03/06 02:48:11;;;;;;;18.00;9.70;;;-0.30;53.80;;;0.24;46.64;97854.25;6235845;23;20020;-37
2022/03/06 02:50:44;;;;;;;16.43;9.17;;;-0.30;53.70;;;0.18;46.72;97851.06;6245415;23;20027;-37
2022/03/06 02:53:12;;;;;;;19.33;9.77;;;-0.40;54.00;;;0.17;46.98;97846.75;6236319;23;20023;-37
2022/03/06 02:55:42;;;;;;;19.93;9.60;;;-0.40;54.00;;;0.14;46.80;97853.97;6236930;23;20020;-37
2022/03/06 02:58:09;;;;;;;13.57;9.20;;;-0.40;54.00;;;0.15;46.69;97860.88;6210066;23;20022;-37
2022/03/06 03:00:39;;;;;;;16.83;10.10;;;-0.40;54.00;;;0.11;46.82;97848.88;6234131;23;20348;-37
2022/03/06 03:03:07;;;;;;;15.37;10.40;;;-0.40;54.00;;;0.10;46.23;97850.69;6234853;23;20205;-37
2022/03/06 03:05:34;;;;;;;18.23;9.23;;;-0.40;53.80;;;0.11;46.19;97854.13;6235212;23;20020;-37
2022/03/06 03:08:03;;;;;;;18.20;9.30;;;-0.40;53.70;;;0.10;46.66;97855.91;6235652;23;20298;-37
2022/03/06 03:10:30;;;;;;;15.43;8.93;;;-0.40;53.70;;;0.07;46.18;97850.84;6235063;23;20542;-37
2022/03/06 03:12:58;;;;;;;15.30;9.27;;;-0.40;53.90;;;0.07;47.07;97863.09;6208976;23;20020;-37
2022/03/06 03:15:26;;;;;;;18.00;9.57;;;-0.40;54.30;;;0.06;46.83;97862.25;6232141;23;20340;-37
2022/03/06 03:17:54;;;;;;;17.47;8.97;;;-0.40;54.30;;;0.03;47.36;97862.44;6234458;23;20016;-37
2022/03/06 03:20:21;;;;;;;14.33;8.53;;;-0.50;54.30;;;0.01;46.69;97866.91;6235960;23;20008;-37
2022/03/06 03:22:49;;;;;;;13.70;8.20;;;-0.50;54.30;;;-0.01;46.97;97859.16;6208793;23;20205;-37
2022/03/06 03:25:17;;;;;;;14.70;8.43;;;-0.50;54.10;;;-0.02;46.81;97860.09;6235293;23;20026;-37
2022/03/06 03:27:46;;;;;;;16.40;8.77;;;-0.50;54.30;;;0.01;46.89;97868.69;6234865;23;20027;-37
2022/03/06 03:30:14;;;;;;;15.53;8.27;;;-0.50;54.30;;;-0.05;47.29;97867.28;6233400;23;20018;-37
2022/03/06 03:32:42;;;;;;;15.30;8.77;;;-0.50;54.30;;;-0.10;47.06;97864.91;6235310;23;20054;-37
2022/03/06 03:35:10;;;;;;;17.47;8.50;;;-0.60;54.70;;;-0.10;47.35;97866.69;6235375;23;20023;-37
2022/03/06 03:37:38;;;;;;;14.17;8.33;;;-0.60;54.60;;;-0.09;47.23;97871.84;6234507;23;20016;-37
2022/03/06 03:40:07;;;;;;;17.33;9.23;;;-0.60;54.50;;;-0.14;47.11;97866.03;6235167;23;20016;-37
2022/03/06 03:42:36;;;;;;;13.67;8.17;;;-0.60;54.60;;;-0.12;47.74;97866.78;6236205;23;20012;-37
2022/03/06 03:45:05;;;;;;;16.57;8.57;;;-0.60;54.80;;;-0.16;47.39;97862.66;6234706;23;20016;-37
2022/03/06 03:47:33;;;;;;;17.10;8.83;;;-0.60;54.60;;;-0.16;47.76;97875.75;6233902;23;20042;-37
2022/03/06 03:50:02;;;;;;;16.93;9.20;;;-0.70;54.70;;;-0.18;47.30;97877.59;6235220;23;20020;-37
2022/03/06 03:52:30;;;;;;;15.90;8.43;;;-0.70;55.10;;;-0.21;47.71;97877.81;6235521;23;20411;-37
2022/03/06 03:54:58;;;;;;;15.43;8.73;;;-0.70;54.70;;;-0.22;47.58;97884.78;6232115;23;20210;-37
2022/03/06 03:57:26;;;;;;;14.87;7.97;;;-0.70;55.00;;;-0.23;47.51;97884.91;6234035;23;20077;-37
2022/03/06 03:59:54;;;;;;;15.00;8.37;;;-0.70;54.90;;;-0.25;47.68;97884.16;6235148;23;20031;-37
2022/03/06 04:02:22;;;;;;;15.87;8.10;;;-0.70;55.00;;;-0.26;48.09;97888.50;6235155;23;20019;-37
2022/03/06 04:04:50;;;;;;;15.13;7.93;;;-0.80;54.80;;;-0.29;47.85;97895.69;6235343;23;20306;-37
2022/03/06 04:07:18;;;;;;;14.53;7.63;;;-0.80;55.30;;;-0.35;47.57;97890.81;6234303;23;20012;-37
2022/03/06 04:09:46;;;;;;;15.60;8.47;;;-0.90;55.20;;;-0.37;48.23;97897.91;6236021;23;20018;-37
2022/03/06 04:12:13;;;;;;;17.10;8.30;;;-0.90;55.70;;;-0.38;47.53;97904.91;6235123;23;20328;-37
2022/03/06 04:14:41;;;;;;;16.27;8.43;;;-0.90;55.70;;;-0.41;47.88;97905.09;6206745;23;20028;-37
2022/03/06 04:17:09;;;;;;;16.37;8.23;;;-0.90;55.80;;;-0.37;48.18;97905.75;6234535;23;20022;-37
2022/03/06 04:19:37;;;;;;;14.17;8.63;;;-0.80;55.60;;;-0.36;47.73;97903.06;6233428;23;20336;-37
2022/03/06 04:22:05;;;;;;;18.07;8.10;;;-0.80;55.30;;;-0.35;47.97;97901.28;6235635;23;20229;-37
2022/03/06 04:24:33;;;;;;;12.27;7.47;;;-0.80;55.00;;;-0.37;47.98;97913.59;6208575;23;20020;-37
2022/03/06 04:27:01;;;;;;;16.07;9.00;;;-0.90;55.60;;;-0.39;47.81;97913.69;6234964;23;20020;-37
2022/03/06 04:29:30;;;;;;;17.50;8.50;;;-0.90;56.00;;;-0.40;47.59;97915.47;6234982;23;20026;-37
2022/03/06 04:31:58;;;;;;;18.17;9.17;;;-0.90;56.20;;;-0.40;48.26;97917.25;6234439;23;20304;-37
2022/03/06 04:34:26;;;;;;;15.70;9.07;;;-0.90;55.70;;;-0.43;48.47;97915.66;6235000;23;20337;-38
2022/03/06 04:36:53;;;;;;;16.67;8.77;;;-0.90;56.00;;;-0.41;47.47;97923.41;6235775;23;20230;-37
2022/03/06 04:39:21;;;;;;;13.97;8.37;;;-0.90;55.50;;;-0.44;48.12;97915.75;6235196;23;20020;-37
2022/03/06 04:41:49;;;;;;;19.27;9.07;;;-0.90;56.00;;;-0.50;47.73;97918.69;6235819;23;20027;-37
2022/03/06 04:44:17;;;;;;;16.33;9.23;;;-1.00;55.60;;;-0.54;48.09;97920.63;6209201;23;20024;-37
2022/03/06 04:46:46;;;;;;;15.63;8.17;;;-1.10;56.10;;;-0.56;48.33;97922.50;6233514;23;20024;-37
2022/03/06 04:49:15;;;;;;;13.63;7.97;;;-1.10;56.60;;;-0.56;48.13;97919.00;6210262;23;20225;-37
2022/03/06 04:51:43;;;;;;;15.77;9.07;;;-1.10;56.70;;;-0.58;48.78;97924.34;6236911;23;20585;-37
2022/03/06 04:54:10;;;;;;;16.30;8.53;;;-1.10;56.70;;;-0.58;48.65;97923.50;6236728;23;20023;-37
2022/03/06 04:56:38;;;;;;;13.93;8.40;;;-1.10;56.50;;;-0.59;48.25;97930.50;6237360;23;20027;-37
2022/03/06 04:59:06;;;;;;;17.93;9.23;;;-1.00;56.80;;;-0.64;48.76;97928.16;6237157;23;20023;-37
2022/03/06 05:01:34;;;;;;;14.77;9.00;;;-1.10;56.50;;;-0.68;48.52;97924.03;6236722;23;20281;-37
2022/03/06 05:04:02;;;;;;;16.53;8.33;;;-1.20;56.40;;;-0.68;48.86;97931.00;6236231;23;20016;-37
2022/03/06 05:06:30;;;;;;;18.40;9.63;;;-1.10;57.40;;;-0.66;48.89;97939.59;6235945;23;20024;-37
2022/03/06 05:08:58;;;;;;;14.43;8.60;;;-1.20;57.20;;;-0.66;48.81;97932.63;6233840;23;20016;-37
2022/03/06 05:11:26;;;;;;;15.73;9.03;;;-1.10;57.00;;;-0.66;48.57;97930.00;6237727;23;20034;-37
2022/03/06 05:13:54;;;;;;;15.97;8.93;;;-1.10;56.90;;;-0.65;48.47;97929.06;6236094;23;20016;-37
2022/03/06 05:16:22;;;;;;;16.30;8.57;;;-1.20;56.90;;;-0.69;48.55;97935.38;6246335;23;20024;-37
2022/03/06 05:18:51;;;;;;;16.10;8.73;;;-1.20;57.20;;;-0.70;48.64;97935.47;6236707;23;20030;-37
2022/03/06 05:21:18;;;;;;;19.73;10.80;;;-1.20;57.60;;;-0.71;48.90;97939.03;6236166;23;20020;-37
2022/03/06 05:23:47;;;;;;;22.10;11.87;;;-1.20;57.90;;;-0.72;49.64;97939.94;6208542;23;20358;-37
2022/03/06 05:26:15;;;;;;;23.30;12.97;;;-1.20;57.90;;;-0.71;49.49;97939.03;6235275;23;20031;-37
2022/03/06 05:28:44;;;;;;;34.23;16.53;;;-1.20;57.70;;;-0.70;49.88;97944.19;6234631;23;20317;-37
2022/03/06 05:31:12;;;;;;;25.50;14.40;;;-1.10;58.20;;;-0.69;49.05;97945.00;6209332;23;20012;-37
2022/03/06 05:33:39;;;;;;;19.90;12.20;;;-1.20;58.50;;;-0.67;49.99;97941.38;6236625;23;20028;-37
2022/03/06 05:36:07;;;;;;;24.63;12.40;;;-1.10;58.50;;;-0.67;49.19;97949.22;6235624;23;20036;-37
2022/03/06 05:38:35;;;;;;;25.77;12.90;;;-1.10;58.60;;;-0.67;49.20;97951.00;6236483;23;20020;-37
2022/03/06 05:41:04;;;;;;;19.47;10.27;;;-1.10;58.60;;;-0.66;49.44;97956.16;6236688;23;20023;-37
2022/03/06 05:43:32;;;;;;;16.23;9.97;;;-1.10;58.60;;;-0.65;49.25;97955.22;6235729;23;20020;-37
2022/03/06 05:46:00;;;;;;;18.33;11.13;;;-1.10;58.70;;;-0.65;50.29;97957.00;6236667;23;20310;-37
2022/03/06 05:48:29;;;;;;;16.50;9.47;;;-1.10;59.00;;;-0.64;50.03;97953.44;6234977;23;20024;-37
2022/03/06 05:50:57;;;;;;;17.90;10.40;;;-1.10;59.20;;;-0.66;50.19;97961.38;6235423;23;20310;-37
2022/03/06 05:53:24;;;;;;;17.57;9.93;;;-1.10;58.70;;;-0.64;50.18;97961.28;6236078;23;20454;-37
2022/03/06 05:55:52;;;;;;;18.10;9.87;;;-1.10;59.20;;;-0.62;49.71;97962.91;6236630;23;20022;-37
2022/03/06 05:58:20;;;;;;;19.77;10.20;;;-1.10;59.30;;;-0.59;50.24;97961.88;6235462;23;20024;-37
2022/03/06 06:00:48;;;;;;;19.00;10.10;;;-1.00;58.70;;;-0.62;49.70;97954.19;6235281;23;20028;-37
2022/03/06 06:03:16;;;;;;;16.70;8.47;;;-1.00;59.10;;;-0.60;50.61;97966.28;6233860;23;20016;-37
2022/03/06 06:05:44;;;;;;;17.77;9.57;;;-1.10;59.20;;;-0.60;50.15;97962.81;6235870;23;20322;-37
2022/03/06 06:08:11;;;;;;;17.67;10.03;;;-1.00;59.40;;;-0.58;50.20;97970.56;6235964;23;20020;-37
2022/03/06 06:10:39;;;;;;;16.83;9.90;;;-1.00;59.40;;;-0.59;50.63;97961.88;6235390;23;20030;-37
2022/03/06 06:13:09;;;;;;;17.20;10.27;;;-1.00;59.40;;;-0.60;50.26;97968.06;6236883;23;20038;-37
2022/03/06 06:15:37;;;;;;;17.17;8.37;;;-1.00;59.60;;;-0.62;50.56;97964.66;6236100;23;20195;-37
2022/03/06 06:18:05;;;;;;;15.80;9.07;;;-1.00;60.50;;;-0.64;51.13;97975.22;6235876;23;20019;-38
2022/03/06 06:20:33;;;;;;;16.50;8.73;;;-1.10;60.80;;;-0.58;50.56;97974.03;6234015;23;20079;-38
2022/03/06 06:23:01;;;;;;;16.83;8.97;;;-1.00;60.50;;;-0.50;50.45;97971.00;6235983;23;20020;-38
2022/03/06 06:25:29;;;;;;;15.20;8.97;;;-0.90;60.00;;;-0.47;50.65;97970.81;6235029;23;20031;-38
2022/03/06 06:27:57;;;;;;;16.10;9.27;;;-0.90;59.90;;;-0.44;50.63;97976.75;6234602;23;20012;-38
2022/03/06 06:30:26;;;;;;;15.50;8.50;;;-0.80;59.80;;;-0.39;51.38;97981.69;6236313;23;20027;-38
2022/03/06 06:32:53;;;;;;;13.33;8.20;;;-0.80;59.90;;;-0.34;51.02;97979.69;6237519;23;20019;-38
2022/03/06 06:35:21;;;;;;;17.10;9.13;;;-0.70;60.20;;;-0.29;50.68;97979.41;6235641;23;20020;-38
2022/03/06 06:37:50;;;;;;;16.50;9.20;;;-0.60;59.90;;;-0.24;51.29;97977.41;6236779;23;20012;-38
2022/03/06 06:40:18;;;;;;;20.13;9.97;;;-0.50;60.30;;;-0.14;51.40;97980.34;6235362;23;20024;-38
2022/03/06 06:42:46;;;;;;;20.97;11.67;;;-0.50;60.40;;;-0.08;51.53;97974.75;6235966;23;20016;-38
2022/03/06 06:45:14;;;;;;;22.63;11.90;;;-0.40;60.30;;;-0.02;51.32;97970.03;6235765;23;20020;-38
2022/03/06 06:47:42;;;;;;;26.73;10.97;;;-0.40;60.20;;;0.03;51.37;97976.78;6236726;23;20018;-38
2022/03/06 06:50:12;;;;;;;23.47;10.50;;;-0.30;60.10;;;0.08;50.95;97974.72;6234217;23;20187;-38
2022/03/06 06:52:40;;;;;;;18.37;11.30;;;-0.30;59.50;;;0.10;51.08;97984.19;6236156;23;20038;-38
2022/03/06 06:55:09;;;;;;;22.57;10.63;;;-0.30;59.90;;;0.10;50.72;97978.13;6233660;23;20035;-38
2022/03/06 06:57:37;;;;;;;16.23;9.60;;;-0.30;60.10;;;0.10;50.99;97981.59;6233987;23;20213;-38
2022/03/06 07:00:07;;;;;;;20.97;10.20;;;-0.30;60.70;;;0.11;51.56;97977.19;6234057;23;20030;-38
2022/03/06 07:02:35;;;;;;;20.10;10.47;;;-0.30;60.70;;;0.11;51.37;97978.03;6234500;23;20085;-37
2022/03/06 07:05:03;;;;;;;16.73;9.37;;;-0.30;60.90;;;0.12;50.79;97981.50;6234053;23;20326;-38
2022/03/06 07:07:31;;;;;;;16.23;9.87;;;-0.30;60.60;;;0.15;50.87;97982.16;6234559;23;20310;-38
2022/03/06 07:09:59;;;;;;;17.77;9.47;;;-0.30;60.60;;;0.19;51.05;97988.91;6234769;23;20024;-38
2022/03/06 07:12:27;;;;;;;17.77;10.00;;;-0.20;60.60;;;0.22;51.36;97989.66;6235126;23;20027;-38
2022/03/06 07:14:55;;;;;;;16.93;10.10;;;-0.20;60.70;;;0.23;51.15;97986.94;6208193;23;20030;-38
2022/03/06 07:17:22;;;;;;;18.10;9.40;;;-0.20;60.80;;;0.25;51.62;97997.34;6234760;23;20039;-38
2022/03/06 07:19:50;;;;;;;17.57;9.67;;;-0.20;61.00;;;0.27;51.60;97996.34;6234775;23;20402;-38
2022/03/06 07:22:18;;;;;;;14.93;8.37;;;-0.20;60.90;;;0.29;51.81;97991.84;6235692;23;20024;-38
2022/03/06 07:24:46;;;;;;;17.17;10.33;;;-0.10;60.80;;;0.35;52.03;98001.09;6234359;23;20020;-38
2022/03/06 07:27:14;;;;;;;17.73;10.37;;;0.00;60.80;;;0.37;51.56;97999.25;6234111;23;20020;-38
2022/03/06 07:29:42;;;;;;;18.77;10.53;;;0.00;60.80;;;0.42;51.51;97999.81;6235896;23;20023;-38
2022/03/06 07:32:09;;;;;;;20.67;13.03;;;0.00;60.70;;;0.46;51.67;98005.72;6235653;23;20018;-38
2022/03/06 07:34:37;;;;;;;21.50;10.07;;;0.10;60.60;;;0.48;51.35;98002.06;6235158;23;20024;-38
2022/03/06 07:37:05;;;;;;;20.87;11.27;;;0.10;60.60;;;0.51;51.38;97998.47;6235504;23;20224;-38
2022/03/06 07:39:33;;;;;;;25.10;13.53;;;0.10;60.50;;;0.55;52.19;98003.41;6235315;23;20026;-38
2022/03/06 07:42:01;;;;;;;30.83;16.33;;;0.20;60.50;;;0.59;52.07;98004.09;6235741;23;20211;-38
2022/03/06 07:44:30;;;;;;;17.77;10.90;;;0.30;60.10;;;0.64;51.30;98003.81;6234406;23;20018;-38
2022/03/06 07:46:57;;;;;;;17.77;9.40;;;0.30;60.10;;;0.67;51.21;98011.50;6234860;23;20314;-38
2022/03/06 07:49:25;;;;;;;17.83;9.00;;;0.30;60.20;;;0.71;51.72;98007.75;6232412;23;20141;-38
2022/03/06 07:51:53;;;;;;;18.50;9.73;;;0.30;60.10;;;0.75;51.44;98010.09;6232422;23;20012;-38
2022/03/06 07:54:21;;;;;;;27.03;13.90;;;0.40;60.50;;;0.78;51.32;98014.34;6233872;23;20229;-38
2022/03/06 07:56:49;;;;;;;27.73;16.10;;;0.40;60.30;;;0.82;51.73;98015.00;6233791;23;20016;-38
2022/03/06 07:59:16;;;;;;;28.47;16.00;;;0.50;60.30;;;0.86;52.16;98021.75;6234090;23;20364;-38
2022/03/06 08:01:44;;;;;;;25.27;14.00;;;0.50;60.50;;;0.89;52.10;98018.91;6236028;23;20427;-38
2022/03/06 08:04:12;;;;;;;22.33;12.77;;;0.50;60.40;;;0.93;51.70;98028.28;6235275;23;20147;-38
2022/03/06 08:06:40;;;;;;;19.83;11.87;;;0.60;60.30;;;0.97;51.58;98027.19;6206947;23;20026;-38
2022/03/06 08:09:08;;;;;;;34.93;16.57;;;0.60;60.30;;;1.00;51.40;98021.75;6233534;23;20020;-38
2022/03/06 08:11:36;;;;;;;28.07;15.20;;;0.70;60.30;;;1.05;52.11;98037.19;6235006;23;20022;-38
2022/03/06 08:14:03;;;;;;;21.53;11.80;;;0.70;60.20;;;1.09;52.31;98031.69;6234282;23;20027;-38
2022/03/06 08:16:31;;;;;;;18.43;10.10;;;0.80;59.90;;;1.12;52.15;98028.84;6233254;23;20031;-38
2022/03/06 08:18:59;;;;;;;19.17;10.97;;;0.80;59.70;;;1.14;51.67;98034.03;6233142;23;20243;-38
2022/03/06 08:21:27;;;;;;;18.90;10.80;;;0.80;59.50;;;1.18;51.57;98033.75;6233869;23;20024;-38
2022/03/06 08:23:55;;;;;;;19.17;11.67;;;0.90;59.60;;;1.23;51.36;98035.25;6234403;23;20058;-38
2022/03/06 08:26:23;;;;;;;18.50;10.13;;;0.90;59.50;;;1.26;51.82;98025.44;6234828;23;20020;-38
2022/03/06 08:28:51;;;;;;;16.77;10.20;;;1.00;59.20;;;1.30;51.80;98021.69;6235835;23;20020;-38
2022/03/06 08:31:20;;;;;;;20.50;12.87;;;1.00;59.20;;;1.36;51.29;98023.91;6235098;23;20031;-38
2022/03/06 08:33:48;;;;;;;22.83;12.73;;;1.10;59.20;;;1.42;51.46;98016.63;6235332;23;20022;-38
2022/03/06 08:36:18;;;;;;;22.10;12.83;;;1.10;59.30;;;1.46;51.39;98021.56;6236184;23;20038;-38
2022/03/06 08:38:46;;;;;;;24.63;13.43;;;1.20;59.40;;;1.52;51.71;98017.72;6234868;23;20019;-38
2022/03/06 08:41:14;;;;;;;22.60;13.23;;;1.20;60.20;;;1.55;51.73;98023.63;6237214;23;20217;-38
2022/03/06 08:43:42;;;;;;;21.10;11.60;;;1.30;59.60;;;1.59;51.40;98024.28;6236298;23;20012;-38
2022/03/06 08:46:10;;;;;;;26.47;13.30;;;1.30;59.30;;;1.64;51.64;98027.44;6234810;23;20012;-38
2022/03/06 08:48:38;;;;;;;28.07;13.80;;;1.40;59.20;;;1.69;51.67;98030.63;6235295;23;20019;-38
2022/03/06 08:51:06;;;;;;;46.67;21.90;;;1.40;58.90;;;1.74;51.68;98028.53;6236792;23;20031;-38
2022/03/06 08:53:40;;;;;;;47.67;20.67;;;1.50;59.00;;;1.78;51.70;98037.06;6235635;23;20024;-38
2022/03/06 08:56:08;;;;;;;34.37;17.47;;;1.50;59.10;;;1.85;51.61;98034.91;6208583;23;20450;-38
2022/03/06 08:58:36;;;;;;;23.33;13.40;;;1.50;58.70;;;1.91;51.14;98030.09;6235660;23;20030;-38
2022/03/06 09:01:04;;;;;;;19.70;10.80;;;1.60;58.50;;;1.95;51.54;98030.75;6233250;23;20046;-38
2022/03/06 09:03:32;;;;;;;19.30;11.93;;;1.70;58.10;;;1.98;51.25;98030.56;6236033;23;20024;-38
2022/03/06 09:06:00;;;;;;;25.17;12.00;;;1.70;57.90;;;2.04;51.40;98030.19;6234182;23;20020;-38
2022/03/06 09:08:28;;;;;;;24.70;13.60;;;1.80;57.90;;;2.08;50.78;98029.03;6234486;23;20028;-38
2022/03/06 09:10:56;;;;;;;23.10;12.17;;;1.80;57.80;;;2.14;50.86;98027.81;6234847;23;20047;-38
2022/03/06 09:13:23;;;;;;;19.87;11.50;;;1.90;57.60;;;2.19;51.22;98028.34;6235569;23;20012;-38
2022/03/06 09:15:51;;;;;;;18.00;10.70;;;2.00;57.50;;;2.26;50.56;98020.91;6234074;23;20063;-38
2022/03/06 09:18:19;;;;;;;22.13;12.50;;;2.00;57.20;;;2.32;51.05;98023.13;6233992;23;20028;-38
2022/03/06 09:20:47;;;;;;;22.37;12.83;;;2.10;57.00;;;2.37;50.44;98023.69;6236544;23;20024;-38
2022/03/06 09:23:15;;;;;;;23.33;12.20;;;2.20;56.60;;;2.43;50.46;98018.00;6235724;23;20028;-37
2022/03/06 09:25:43;;;;;;;21.90;12.40;;;2.20;56.00;;;2.50;50.53;98021.06;6236835;23;20012;-38
2022/03/06 09:28:10;;;;;;;18.93;10.73;;;2.30;56.00;;;2.55;50.30;98019.00;6235407;23;20024;-37
2022/03/06 09:30:38;;;;;;;16.07;10.20;;;2.40;55.40;;;2.58;49.94;98015.31;6236661;23;20012;-38
2022/03/06 09:33:06;;;;;;;19.90;9.67;;;2.40;54.90;;;2.61;49.39;98015.94;6236997;23;20046;-38
2022/03/06 09:35:34;;;;;;;25.10;12.67;;;2.50;54.80;;;2.68;49.71;98019.84;6234432;23;20028;-37
2022/03/06 09:38:02;;;;;;;25.90;12.87;;;2.60;54.90;;;2.72;49.51;98020.50;6235363;23;20046;-38
2022/03/06 09:40:30;;;;;;;21.17;12.53;;;2.60;54.90;;;2.78;49.64;98016.63;6236092;23;20024;-37
2022/03/06 09:42:58;;;;;;;20.03;11.13;;;2.60;54.90;;;2.84;49.48;98014.41;6237539;23;20213;-38
2022/03/06 09:45:32;;;;;;;20.30;10.27;;;2.70;54.50;;;2.89;49.57;98020.22;6235731;23;20026;-38
2022/03/06 09:48:03;;;;;;;21.30;11.70;;;2.80;53.60;;;2.94;49.73;98025.13;6210453;23;20205;-38
2022/03/06 09:50:32;;;;;;;18.37;10.93;;;2.80;53.70;;;3.00;48.85;98013.38;6235315;23;20019;-38
2022/03/06 09:53:00;;;;;;;19.57;10.13;;;2.80;53.60;;;3.03;48.92;98011.38;6210101;23;20016;-38
2022/03/06 09:55:29;;;;;;;18.97;10.30;;;2.90;53.60;;;3.06;48.58;98005.88;6236580;23;20016;-37
2022/03/06 09:57:58;;;;;;;20.57;10.67;;;2.90;52.90;;;3.11;48.57;98003.78;6235987;23;20020;-37
2022/03/06 10:00:31;;;;;;;18.10;11.20;;;3.00;53.00;;;3.17;48.52;98014.84;6244778;23;20023;-38
2022/03/06 10:03:03;;;;;;;18.97;11.33;;;3.00;53.20;;;3.20;48.44;98017.25;6236848;23;20024;-37
2022/03/06 10:05:38;;;;;;;23.10;12.07;;;3.00;53.10;;;3.24;48.38;98019.59;6246022;23;20340;-37
2022/03/06 10:08:23;;;;;;;14.73;10.33;;;3.00;52.60;;;3.29;47.78;98008.72;6235521;23;20023;-37
2022/03/06 10:11:02;;;;;;;18.33;10.07;;;3.10;51.80;;;3.31;48.03;98012.09;6208400;23;20038;-37
2022/03/06 10:13:40;;;;;;;18.87;10.80;;;3.10;51.90;;;3.35;47.78;98014.41;6183730;23;20048;-37
2022/03/06 10:16:15;;;;;;;22.07;12.67;;;3.20;51.70;;;3.43;46.98;98010.38;6183239;23;20335;-37
2022/03/06 10:18:54;;;;;;;16.63;9.97;;;3.30;51.80;;;3.55;47.07;98020.91;6234585;23;20027;-37
2022/03/06 10:21:33;;;;;;;17.60;10.30;;;3.50;51.80;;;3.64;47.27;98015.94;6219932;23;20024;-37
2022/03/06 10:24:08;;;;;;;17.80;10.03;;;3.60;49.80;;;3.70;47.16;98024.25;6183160;23;20058;-37